Time;durP1;ratioP1;P1;durP2;ratioP2;P2;SDS_P1;SDS_P2;PMS_P1;PMS_P2;Temp;Humidity;BMP_temperature;BMP_pressure;BME280_temperature;BME280_humidity;BME280_pressure;Samples;Min_cycle;Max_cycle;Signal;HPM_P1;HPM_P2
2021/03/04 00:00:17;;;;;;;12.18;7.93;;;7.10;99.90;;;;;;5044874;28;20221;-75
2021/03/04 00:02:43;;;;;;;12.38;7.78;;;7.10;99.90;;;;;;5045251;28;20304;-75
2021/03/04 00:05:12;;;;;;;9.68;7.15;;;7.10;99.90;;;;;;5045764;28;20209;-75
2021/03/04 00:07:39;;;;;;;8.80;7.20;;;7.10;99.90;;;;;;5045463;28;20213;-75
2021/03/04 00:10:08;;;;;;;15.55;8.00;;;7.10;99.90;;;;;;5044118;28;20229;-76
2021/03/04 00:12:35;;;;;;;10.75;6.82;;;7.00;99.90;;;;;;5045138;28;20209;-75
2021/03/04 00:15:06;;;;;;;12.45;7.93;;;7.00;99.90;;;;;;5044751;28;20243;-75
2021/03/04 00:17:33;;;;;;;9.43;7.25;;;7.00;99.90;;;;;;5044960;28;20579;-75
2021/03/04 00:20:00;;;;;;;8.32;7.07;;;7.00;99.90;;;;;;5044582;28;20240;-75
2021/03/04 00:22:26;;;;;;;10.55;7.53;;;7.00;99.90;;;;;;5044603;28;20201;-75
2021/03/04 00:24:52;;;;;;;9.35;7.20;;;6.90;99.90;;;;;;5044739;28;20205;-76
2021/03/04 00:27:19;;;;;;;9.32;7.13;;;6.90;99.90;;;;;;5044372;28;20293;-75
2021/03/04 00:29:45;;;;;;;11.75;6.70;;;6.90;99.90;;;;;;5044309;28;20231;-75
2021/03/04 00:32:11;;;;;;;9.43;7.40;;;6.90;99.90;;;;;;5044578;28;20205;-75
2021/03/04 00:34:38;;;;;;;12.80;7.07;;;6.90;99.90;;;;;;5044815;28;20267;-75
2021/03/04 00:37:04;;;;;;;9.98;7.57;;;6.90;99.90;;;;;;5043958;28;20663;-75
2021/03/04 00:39:30;;;;;;;7.63;6.43;;;6.90;99.90;;;;;;5044414;28;20200;-75
2021/03/04 00:41:57;;;;;;;11.40;7.90;;;6.80;99.90;;;;;;5044203;28;20205;-75
2021/03/04 00:44:24;;;;;;;9.57;7.30;;;6.80;99.90;;;;;;5048946;28;20212;-75
2021/03/04 00:46:50;;;;;;;8.23;6.82;;;6.80;99.90;;;;;;5049265;28;20684;-75
2021/03/04 00:49:16;;;;;;;9.73;7.05;;;6.80;99.90;;;;;;5048553;28;20220;-75
2021/03/04 00:51:42;;;;;;;11.18;7.88;;;6.80;99.90;;;;;;5049201;28;20228;-75
2021/03/04 00:54:09;;;;;;;14.23;6.55;;;6.80;99.90;;;;;;5047248;28;20201;-75
2021/03/04 00:56:35;;;;;;;11.57;7.13;;;6.80;99.90;;;;;;5119042;22;21515;-69
2021/03/04 00:59:02;;;;;;;9.00;6.13;;;6.80;99.90;;;;;;5089013;28;20531;-70
2021/03/04 01:01:29;;;;;;;11.85;6.53;;;6.80;99.90;;;;;;5100006;28;20226;-69
2021/03/04 01:03:55;;;;;;;11.43;6.88;;;6.70;99.90;;;;;;5109987;28;20207;-70
2021/03/04 01:06:21;;;;;;;8.43;6.18;;;6.70;99.90;;;;;;5109914;28;20199;-70
2021/03/04 01:08:48;;;;;;;9.07;6.88;;;6.60;99.90;;;;;;5109793;28;20746;-70
2021/03/04 01:11:15;;;;;;;10.02;6.97;;;6.60;99.90;;;;;;5109634;28;20222;-71
2021/03/04 01:13:41;;;;;;;7.72;6.60;;;6.60;99.90;;;;;;5110139;28;20689;-71
2021/03/04 01:16:08;;;;;;;7.57;6.10;;;6.60;99.90;;;;;;5110022;28;20222;-70
2021/03/04 01:18:35;;;;;;;11.55;7.38;;;6.60;99.90;;;;;;5104559;28;20203;-71
2021/03/04 01:21:02;;;;;;;9.25;6.53;;;6.60;99.90;;;;;;5109802;28;20215;-71
2021/03/04 01:23:28;;;;;;;9.20;6.70;;;6.60;99.90;;;;;;5109827;28;20203;-71
2021/03/04 01:25:54;;;;;;;8.00;6.18;;;6.60;99.90;;;;;;5108449;28;20605;-71
2021/03/04 01:28:21;;;;;;;9.10;6.70;;;6.60;99.90;;;;;;5109909;28;20203;-71
2021/03/04 01:30:47;;;;;;;7.40;6.07;;;6.60;99.90;;;;;;5109420;28;20294;-71
2021/03/04 01:33:13;;;;;;;9.60;7.03;;;6.60;99.90;;;;;;5109598;28;20199;-71
2021/03/04 01:35:40;;;;;;;9.52;6.13;;;6.70;99.90;;;;;;5110144;28;20252;-71
2021/03/04 01:38:06;;;;;;;10.52;7.80;;;6.70;99.90;;;;;;5110385;28;20195;-71
2021/03/04 01:40:33;;;;;;;9.07;6.80;;;6.70;99.90;;;;;;5109660;28;20219;-71
2021/03/04 01:42:59;;;;;;;9.82;7.40;;;6.70;99.40;;;;;;5107430;28;20557;-71
2021/03/04 01:45:25;;;;;;;10.02;7.10;;;6.80;99.20;;;;;;5104957;28;20199;-70
2021/03/04 01:47:54;;;;;;;11.73;6.90;;;6.90;99.00;;;;;;5107869;28;20202;-71
2021/03/04 01:50:22;;;;;;;12.82;7.03;;;7.00;99.20;;;;;;5107404;28;20218;-70
2021/03/04 01:52:49;;;;;;;13.48;7.45;;;7.00;99.20;;;;;;5110504;28;20543;-71
2021/03/04 01:55:17;;;;;;;11.50;7.03;;;7.10;99.30;;;;;;5110178;28;20206;-71
2021/03/04 01:57:44;;;;;;;10.38;7.22;;;7.10;98.90;;;;;;5110023;28;20206;-71
2021/03/04 02:00:13;;;;;;;10.07;7.65;;;7.10;98.70;;;;;;5109474;28;20219;-71
2021/03/04 02:03:16;;;;;;;11.80;7.63;;;7.10;98.20;;;;;;5109894;28;20572;-71
2021/03/04 02:05:43;;;;;;;9.88;7.45;;;7.20;98.00;;;;;;5109863;28;20199;-70
2021/03/04 02:08:18;;;;;;;10.35;7.32;;;7.30;98.00;;;;;;5109642;28;20210;-70
2021/03/04 02:10:49;;;;;;;8.40;7.15;;;7.30;98.30;;;;;;5109003;28;20227;-71
2021/03/04 02:13:23;;;;;;;10.55;7.00;;;7.30;98.80;;;;;;5109440;28;20203;-71
2021/03/04 02:15:53;;;;;;;10.38;6.97;;;7.30;98.80;;;;;;5109913;28;20217;-70
2021/03/04 02:18:22;;;;;;;8.45;6.78;;;7.20;98.60;;;;;;5109597;28;20213;-71
2021/03/04 02:21:10;;;;;;;9.27;6.75;;;7.20;98.80;;;;;;5108899;28;20585;-71
2021/03/04 02:24:29;;;;;;;9.38;7.22;;;7.20;99.60;;;;;;5109564;28;20669;-71
2021/03/04 02:27:07;;;;;;;7.60;6.25;;;7.10;99.80;;;;;;5075725;28;20230;-71
2021/03/04 02:29:43;;;;;;;9.93;7.35;;;7.00;99.90;;;;;;5108705;28;20199;-71
2021/03/04 02:32:10;;;;;;;10.45;7.35;;;7.00;99.70;;;;;;5109313;28;20218;-71
2021/03/04 02:34:43;;;;;;;8.02;6.50;;;6.90;99.70;;;;;;5109173;28;20210;-70
2021/03/04 02:37:10;;;;;;;9.40;6.55;;;6.90;99.90;;;;;;5109511;28;20207;-71
2021/03/04 02:39:37;;;;;;;9.00;6.55;;;6.80;99.90;;;;;;5108559;28;20902;-70
2021/03/04 02:42:05;;;;;;;8.02;6.32;;;6.80;99.90;;;;;;5109318;28;20198;-71
2021/03/04 02:44:32;;;;;;;8.50;6.40;;;6.70;99.90;;;;;;5109648;28;20194;-70
2021/03/04 02:46:59;;;;;;;8.90;6.70;;;6.70;99.90;;;;;;5113347;28;20674;-71
2021/03/04 02:49:25;;;;;;;8.13;5.75;;;6.70;99.90;;;;;;5112701;28;20203;-71
2021/03/04 02:51:52;;;;;;;9.52;6.45;;;6.70;99.90;;;;;;5113207;28;20215;-71
2021/03/04 02:54:19;;;;;;;10.85;6.35;;;6.70;99.90;;;;;;5113353;28;20248;-71
2021/03/04 02:56:46;;;;;;;8.68;6.13;;;6.70;99.80;;;;;;5113044;28;20211;-71
2021/03/04 02:59:14;;;;;;;9.00;5.55;;;6.80;99.90;;;;;;5112555;28;20203;-71
2021/03/04 03:01:41;;;;;;;9.40;6.30;;;6.80;99.90;;;;;;5113214;28;20215;-71
2021/03/04 03:04:08;;;;;;;7.78;5.70;;;6.80;99.80;;;;;;5113050;28;20203;-70
2021/03/04 03:06:37;;;;;;;7.18;5.65;;;6.90;98.90;;;;;;5112877;28;20206;-71
2021/03/04 03:09:04;;;;;;;9.30;5.82;;;6.90;98.40;;;;;;5112423;28;20214;-71
2021/03/04 03:11:31;;;;;;;8.48;6.47;;;7.00;98.90;;;;;;5112575;28;20477;-71
2021/03/04 03:13:59;;;;;;;6.72;5.45;;;7.00;98.20;;;;;;5112817;28;20203;-70
2021/03/04 03:16:27;;;;;;;7.82;6.10;;;7.00;98.40;;;;;;5112890;28;20203;-71
2021/03/04 03:18:53;;;;;;;11.15;6.00;;;7.10;97.90;;;;;;5112469;28;20264;-70
2021/03/04 03:21:20;;;;;;;11.23;5.80;;;7.10;97.60;;;;;;5112878;28;20606;-70
2021/03/04 03:23:46;;;;;;;6.80;5.97;;;7.10;97.60;;;;;;5112924;28;20203;-70
2021/03/04 03:26:12;;;;;;;9.32;5.53;;;7.20;98.00;;;;;;5112784;28;20525;-71
2021/03/04 03:28:39;;;;;;;7.57;6.75;;;7.20;97.90;;;;;;5112155;28;20199;-71
2021/03/04 03:31:06;;;;;;;10.10;6.68;;;7.20;97.80;;;;;;5112654;28;20222;-71
2021/03/04 03:33:33;;;;;;;8.32;5.75;;;7.20;97.50;;;;;;5112436;28;20618;-71
2021/03/04 03:36:00;;;;;;;9.25;6.40;;;7.20;97.20;;;;;;5113324;28;20203;-71
2021/03/04 03:38:27;;;;;;;9.15;6.88;;;7.20;96.60;;;;;;5112650;28;20222;-71
2021/03/04 03:40:55;;;;;;;8.93;6.35;;;7.30;96.70;;;;;;5111980;28;20371;-71
2021/03/04 03:43:24;;;;;;;13.07;7.20;;;7.30;96.80;;;;;;5112719;28;20230;-70
2021/03/04 03:45:51;;;;;;;10.20;6.93;;;7.30;96.60;;;;;;5112541;28;20199;-71
2021/03/04 03:48:21;;;;;;;10.82;6.57;;;7.30;97.10;;;;;;5112248;28;20198;-70
2021/03/04 03:50:51;;;;;;;9.80;6.75;;;7.30;98.00;;;;;;5111805;28;20277;-71
2021/03/04 03:53:18;;;;;;;8.48;6.38;;;7.30;98.10;;;;;;5112080;28;20256;-71
2021/03/04 03:55:47;;;;;;;7.18;5.90;;;7.30;96.80;;;;;;5112160;28;20203;-71
2021/03/04 03:58:13;;;;;;;9.45;6.32;;;7.20;96.50;;;;;;5111276;28;20207;-71
2021/03/04 04:00:41;;;;;;;9.05;6.60;;;7.30;96.50;;;;;;5111485;28;20223;-71
2021/03/04 04:03:09;;;;;;;8.52;5.50;;;7.20;96.20;;;;;;5112382;28;20260;-71
2021/03/04 04:05:36;;;;;;;7.47;6.43;;;7.20;96.50;;;;;;5112029;28;20199;-71
2021/03/04 04:08:04;;;;;;;10.25;6.10;;;7.20;96.50;;;;;;5111950;28;20547;-71
2021/03/04 04:10:32;;;;;;;8.85;5.88;;;7.30;96.10;;;;;;5110839;28;20226;-71
2021/03/04 04:12:59;;;;;;;7.38;5.75;;;7.30;95.80;;;;;;5111890;28;20203;-71
2021/03/04 04:15:26;;;;;;;8.25;6.32;;;7.30;95.80;;;;;;5111970;28;20195;-71
2021/03/04 04:17:57;;;;;;;9.57;5.75;;;7.30;96.00;;;;;;5111861;28;20604;-71
2021/03/04 04:20:24;;;;;;;8.52;6.03;;;7.30;95.90;;;;;;5110986;28;20215;-70
2021/03/04 04:22:51;;;;;;;7.95;5.80;;;7.30;96.10;;;;;;5111703;28;20730;-71
2021/03/04 04:25:21;;;;;;;9.95;7.47;;;7.30;96.20;;;;;;5111392;28;20207;-71
2021/03/04 04:27:48;;;;;;;7.10;6.15;;;7.30;96.60;;;;;;5111740;28;20252;-71
2021/03/04 04:30:16;;;;;;;9.43;6.35;;;7.20;96.40;;;;;;5110433;28;20223;-70
2021/03/04 04:32:42;;;;;;;12.02;8.45;;;7.20;96.40;;;;;;5111034;28;20195;-71
2021/03/04 04:35:09;;;;;;;7.70;6.32;;;7.20;96.20;;;;;;5111587;28;20256;-70
2021/03/04 04:37:35;;;;;;;8.40;6.05;;;7.20;96.20;;;;;;5092502;28;20204;-71
2021/03/04 04:40:02;;;;;;;7.70;6.65;;;7.20;96.10;;;;;;5090175;28;20232;-73
2021/03/04 04:42:29;;;;;;;10.43;7.10;;;7.20;96.10;;;;;;5091072;28;20222;-73
2021/03/04 04:44:55;;;;;;;8.15;7.07;;;7.20;96.60;;;;;;5090951;28;20204;-72
2021/03/04 04:47:21;;;;;;;7.80;6.45;;;7.20;96.90;;;;;;5090605;28;20573;-72
2021/03/04 04:49:47;;;;;;;9.75;6.65;;;7.10;97.40;;;;;;5090413;28;20703;-72
2021/03/04 04:52:14;;;;;;;9.65;6.30;;;7.10;96.80;;;;;;5090579;28;20223;-72
2021/03/04 04:54:40;;;;;;;8.20;6.20;;;7.00;97.10;;;;;;5090670;28;20671;-72
2021/03/04 04:57:07;;;;;;;8.25;7.20;;;7.00;97.50;;;;;;5089553;28;20675;-73
2021/03/04 04:59:34;;;;;;;9.23;6.35;;;6.90;96.40;;;;;;5088370;28;20238;-71
2021/03/04 05:02:02;;;;;;;8.32;5.93;;;7.00;96.40;;;;;;5082308;28;20715;-71
2021/03/04 05:04:28;;;;;;;8.25;6.32;;;7.00;96.50;;;;;;5090046;28;20203;-71
2021/03/04 05:06:54;;;;;;;9.25;6.28;;;6.90;96.00;;;;;;5090087;28;20226;-70
2021/03/04 05:09:20;;;;;;;8.65;6.00;;;7.00;95.90;;;;;;5087395;28;20203;-71
2021/03/04 05:11:46;;;;;;;8.98;6.80;;;7.00;95.90;;;;;;5086818;28;20219;-71
2021/03/04 05:14:13;;;;;;;10.35;6.65;;;7.00;96.70;;;;;;5088527;28;20195;-71
2021/03/04 05:16:40;;;;;;;11.48;7.00;;;6.90;96.80;;;;;;5088663;28;20200;-72
2021/03/04 05:19:06;;;;;;;8.63;6.32;;;6.90;96.60;;;;;;5089143;28;20207;-71
2021/03/04 05:21:32;;;;;;;10.93;6.53;;;6.90;97.10;;;;;;5089620;28;20251;-71
2021/03/04 05:23:59;;;;;;;8.20;6.72;;;6.80;97.80;;;;;;5089397;28;20200;-73
2021/03/04 05:26:25;;;;;;;6.93;5.88;;;6.70;98.30;;;;;;5089780;28;20200;-71
2021/03/04 05:28:51;;;;;;;10.75;6.80;;;6.70;99.40;;;;;;5089511;28;20204;-70
2021/03/04 05:31:17;;;;;;;8.80;7.05;;;6.60;99.00;;;;;;5088408;28;20947;-70
2021/03/04 05:33:44;;;;;;;10.98;6.95;;;6.50;99.00;;;;;;5090072;28;20211;-70
2021/03/04 05:36:11;;;;;;;8.80;6.38;;;6.30;99.10;;;;;;5089808;28;20204;-70
2021/03/04 05:38:37;;;;;;;7.93;5.70;;;6.30;99.20;;;;;;5089770;28;20222;-70
2021/03/04 05:41:04;;;;;;;7.80;6.95;;;6.20;99.20;;;;;;5089319;28;20390;-70
2021/03/04 05:43:30;;;;;;;8.48;6.20;;;6.20;99.40;;;;;;5089562;28;20203;-69
2021/03/04 05:45:57;;;;;;;8.95;6.45;;;6.20;98.90;;;;;;5089033;28;20200;-70
2021/03/04 05:48:27;;;;;;;9.95;7.22;;;6.20;98.20;;;;;;5089260;28;20203;-70
2021/03/04 05:50:57;;;;;;;8.13;6.32;;;6.20;98.40;;;;;;5088451;28;20220;-70
2021/03/04 05:53:25;;;;;;;11.05;7.13;;;6.30;98.50;;;;;;5089227;28;20215;-70
2021/03/04 05:55:51;;;;;;;8.57;7.40;;;6.30;98.50;;;;;;5089189;28;20195;-70
2021/03/04 05:58:19;;;;;;;9.43;7.18;;;6.30;98.70;;;;;;5088906;28;20683;-70
2021/03/04 06:00:45;;;;;;;11.52;7.13;;;6.20;98.30;;;;;;5088312;28;20220;-69
2021/03/04 06:03:12;;;;;;;9.43;6.80;;;6.20;98.20;;;;;;5089037;28;20231;-70
2021/03/04 06:05:39;;;;;;;9.25;6.82;;;6.20;98.60;;;;;;5091369;28;20245;-71
2021/03/04 06:08:07;;;;;;;14.38;7.63;;;6.10;99.20;;;;;;5089334;28;20206;-68
2021/03/04 06:10:34;;;;;;;10.93;7.22;;;6.00;99.70;;;;;;5087611;28;20219;-69
2021/03/04 06:13:01;;;;;;;10.63;7.75;;;5.90;99.70;;;;;;5088103;28;20575;-68
2021/03/04 06:15:29;;;;;;;10.93;7.15;;;5.90;99.80;;;;;;5088293;28;20211;-69
2021/03/04 06:17:56;;;;;;;13.55;7.75;;;5.90;99.90;;;;;;5085821;28;20202;-68
2021/03/04 06:20:23;;;;;;;9.48;7.68;;;5.80;99.90;;;;;;5087553;28;20212;-68
2021/03/04 06:22:51;;;;;;;9.48;7.72;;;5.70;99.90;;;;;;5087829;28;20655;-69
2021/03/04 06:25:21;;;;;;;10.55;7.55;;;5.70;99.90;;;;;;5088393;28;20709;-69
2021/03/04 06:27:47;;;;;;;9.07;6.88;;;5.70;99.90;;;;;;5088074;28;20202;-69
2021/03/04 06:30:16;;;;;;;12.20;6.75;;;5.60;99.90;;;;;;5087590;28;20223;-69
2021/03/04 06:32:54;;;;;;;12.63;7.38;;;5.60;99.90;;;;;;5085467;28;20198;-69
2021/03/04 06:35:23;;;;;;;9.18;6.90;;;5.70;99.90;;;;;;5088526;28;20203;-67
2021/03/04 06:37:50;;;;;;;8.55;6.43;;;5.70;99.40;;;;;;5088355;28;20207;-69
2021/03/04 06:40:23;;;;;;;10.98;6.97;;;5.80;98.60;;;;;;5087827;28;20227;-71
2021/03/04 06:42:50;;;;;;;9.40;6.80;;;5.90;98.90;;;;;;5088314;28;20249;-70
2021/03/04 06:45:31;;;;;;;11.82;6.72;;;6.00;99.00;;;;;;5088529;28;20686;-70
2021/03/04 06:48:08;;;;;;;8.45;6.30;;;6.10;98.90;;;;;;5088542;28;20207;-71
2021/03/04 06:50:34;;;;;;;9.43;6.53;;;6.20;99.20;;;;;;5087632;28;20226;-70
2021/03/04 06:53:14;;;;;;;12.18;6.72;;;6.30;99.10;;;;;;5088172;28;20208;-69
2021/03/04 06:55:52;;;;;;;10.65;6.75;;;6.30;99.60;;;;;;5088620;28;20200;-70
2021/03/04 06:58:30;;;;;;;8.82;6.80;;;6.40;99.20;;;;;;5114143;22;20324;-89
2021/03/04 07:01:07;;;;;;;9.15;6.30;;;6.40;99.50;;;;;;5107176;28;20227;-90
2021/03/04 07:04:02;;;;;;;8.15;6.97;;;6.50;98.90;;;;;;5107373;28;20195;-90
2021/03/04 07:06:36;;;;;;;10.90;6.90;;;6.60;98.70;;;;;;5105751;28;20199;-90
2021/03/04 07:09:28;;;;;;;9.27;7.38;;;6.70;99.00;;;;;;5103107;28;20223;-89
2021/03/04 07:12:33;;;;;;;9.15;6.25;;;6.80;98.00;;;;;;5098501;28;20223;-88
2021/03/04 07:15:01;;;;;;;10.23;6.63;;;7.00;98.00;;;;;;5094041;28;20219;-90
2021/03/04 07:17:28;;;;;;;10.55;6.28;;;7.30;98.10;;;;;;5095824;28;20208;-91
2021/03/04 07:19:57;;;;;;;8.35;6.60;;;7.60;97.90;;;;;;5096836;28;20235;-91
2021/03/04 07:22:27;;;;;;;9.25;7.05;;;8.00;97.90;;;;;;5111711;28;20291;-92
2021/03/04 07:24:54;;;;;;;13.70;7.45;;;8.40;97.80;;;;;;5100499;28;20200;-91
2021/03/04 07:27:21;;;;;;;12.52;6.60;;;8.90;97.00;;;;;;5093541;28;20673;-90
2021/03/04 07:29:47;;;;;;;9.20;7.00;;;9.30;95.60;;;;;;5093804;28;20238;-91
2021/03/04 07:32:16;;;;;;;10.38;6.57;;;9.70;95.30;;;;;;5096225;28;20207;-91
2021/03/04 07:34:44;;;;;;;9.45;6.78;;;10.10;93.80;;;;;;5097194;28;20260;-91
2021/03/04 07:37:15;;;;;;;10.10;7.68;;;10.60;93.20;;;;;;5097293;28;20322;-90
2021/03/04 07:39:41;;;;;;;9.30;7.20;;;11.10;92.20;;;;;;5097411;28;20274;-90
2021/03/04 07:52:12;;;;;;;11.05;6.90;;;13.00;87.00;;;;;;5077344;28;20215;-70
2021/03/04 07:54:39;;;;;;;9.80;6.70;;;13.20;84.20;;;;;;5084096;28;20204;-71
2021/03/04 07:57:08;;;;;;;10.02;6.43;;;13.40;84.20;;;;;;5091045;28;20192;-71
2021/03/04 07:59:34;;;;;;;7.10;5.97;;;13.90;82.30;;;;;;5090794;28;20196;-71
2021/03/04 08:02:03;;;;;;;8.10;6.33;;;14.10;81.00;;;;;;5091144;28;20585;-71
2021/03/04 08:04:31;;;;;;;9.23;5.97;;;14.20;80.70;;;;;;5091470;28;20462;-71
2021/03/04 08:06:58;;;;;;;8.60;6.00;;;14.60;79.10;;;;;;5091041;28;20542;-71
2021/03/04 08:09:30;;;;;;;10.57;5.57;;;14.70;79.30;;;;;;5090390;28;20457;-72
2021/03/04 08:12:09;;;;;;;7.20;6.40;;;14.90;77.10;;;;;;5090772;28;20450;-71
2021/03/04 08:14:38;;;;;;;10.00;7.03;;;14.90;76.80;;;;;;5091459;28;20469;-72
2021/03/04 08:17:04;;;;;;;14.87;7.40;;;14.80;77.20;;;;;;5090979;28;20514;-72
2021/03/04 08:19:32;;;;;;;8.73;6.27;;;14.40;75.80;;;;;;5090037;28;20458;-71
2021/03/04 08:22:06;;;;;;;8.37;6.30;;;13.80;77.70;;;;;;5090586;28;20493;-72
2021/03/04 08:24:36;;;;;;;11.73;6.93;;;13.50;76.70;;;;;;5091009;28;20476;-72
2021/03/04 08:27:03;;;;;;;11.80;6.80;;;13.80;76.80;;;;;;5090745;28;20511;-72
2021/03/04 08:29:29;;;;;;;11.10;7.37;;;14.40;77.10;;;;;;5090634;28;20454;-72
2021/03/04 08:32:00;;;;;;;10.70;6.77;;;15.20;75.40;;;;;;5090846;28;20457;-72
2021/03/04 08:34:35;;;;;;;10.57;6.87;;;15.90;74.10;;;;;;5091541;28;20462;-72
2021/03/04 08:37:01;;;;;;;11.00;6.73;;;16.30;71.70;;;;;;5090911;28;20554;-72
2021/03/04 08:39:31;;;;;;;10.37;7.00;;;16.60;71.90;;;;;;5090366;28;20465;-72
2021/03/04 08:42:03;;;;;;;6.40;5.63;;;17.40;70.00;;;;;;5090913;28;21075;-71
2021/03/04 08:44:30;;;;;;;8.93;6.87;;;18.30;69.10;;;;;;5091082;28;20638;-71
2021/03/04 08:46:56;;;;;;;9.13;6.63;;;18.70;65.80;;;;;;5090871;28;20518;-72
2021/03/04 08:49:23;;;;;;;8.80;5.80;;;18.80;67.30;;;;;;5090555;28;20457;-72
2021/03/04 08:51:49;;;;;;;7.57;6.20;;;19.30;66.60;;;;;;5090666;28;20461;-72
2021/03/04 08:54:23;;;;;;;7.57;6.47;;;19.70;65.00;;;;;;5091010;28;20461;-72
2021/03/04 08:56:54;;;;;;;10.80;7.30;;;19.70;62.50;;;;;;5090672;28;20461;-72
2021/03/04 08:59:22;;;;;;;12.70;6.53;;;18.70;64.20;;;;;;5090206;28;20462;-72
2021/03/04 09:01:49;;;;;;;11.23;7.50;;;17.80;65.60;;;;;;5074963;28;20498;-72
2021/03/04 09:04:19;;;;;;;10.60;7.20;;;16.80;67.40;;;;;;5070225;28;20475;-71
2021/03/04 09:06:45;;;;;;;11.63;7.10;;;16.40;68.70;;;;;;5069615;28;20461;-71
2021/03/04 09:09:23;;;;;;;7.90;6.53;;;16.10;69.00;;;;;;5069408;28;20462;-71
2021/03/04 09:11:49;;;;;;;9.90;6.17;;;15.80;69.60;;;;;;5069865;28;21026;-71
2021/03/04 09:14:16;;;;;;;11.77;6.60;;;15.60;70.10;;;;;;5070074;28;20462;-72
2021/03/04 09:16:45;;;;;;;10.70;6.17;;;15.90;70.50;;;;;;5070234;28;20467;-72
2021/03/04 09:19:11;;;;;;;7.97;6.00;;;16.60;69.50;;;;;;5069750;28;20473;-72
2021/03/04 09:21:38;;;;;;;9.83;6.60;;;17.40;68.40;;;;;;5070211;28;20487;-72
2021/03/04 09:24:05;;;;;;;9.90;6.73;;;18.10;66.70;;;;;;5070210;28;20508;-72
2021/03/04 09:26:32;;;;;;;10.13;5.67;;;19.40;65.50;;;;;;5070611;28;20454;-72
2021/03/04 09:29:00;;;;;;;9.10;6.60;;;20.10;63.30;;;;;;5069458;28;20469;-71
2021/03/04 09:31:27;;;;;;;8.33;7.20;;;19.90;64.00;;;;;;5070378;28;20474;-72
2021/03/04 09:33:57;;;;;;;9.03;6.20;;;19.00;64.60;;;;;;5069874;28;20641;-71
2021/03/04 09:36:24;;;;;;;9.97;6.57;;;17.70;65.50;;;;;;5070338;28;20466;-71
2021/03/04 09:38:52;;;;;;;14.80;7.80;;;16.70;68.10;;;;;;5068901;28;20458;-72
2021/03/04 09:41:19;;;;;;;10.90;6.20;;;16.10;69.80;;;;;;5069566;28;20866;-72
2021/03/04 09:43:47;;;;;;;11.50;6.20;;;16.60;69.60;;;;;;5069850;28;20462;-72
2021/03/04 09:46:25;;;;;;;9.70;5.80;;;17.90;68.40;;;;;;5069835;28;20787;-72
2021/03/04 09:48:52;;;;;;;9.00;6.40;;;18.90;64.60;;;;;;5068944;28;20466;-73
2021/03/04 09:51:19;;;;;;;9.53;7.33;;;20.00;64.70;;;;;;5069439;28;20505;-71
2021/03/04 09:53:47;;;;;;;12.27;6.70;;;21.00;62.20;;;;;;5069572;28;20465;-72
2021/03/04 09:56:20;;;;;;;12.23;6.87;;;21.70;61.70;;;;;;5069368;28;20447;-72
2021/03/04 09:58:46;;;;;;;10.53;7.10;;;22.60;60.50;;;;;;5069064;28;20511;-72
2021/03/04 10:01:12;;;;;;;7.30;6.20;;;22.70;60.10;;;;;;5069855;28;21197;-72
2021/03/04 10:03:41;;;;;;;10.67;6.93;;;21.60;60.10;;;;;;5069410;28;20957;-72
2021/03/04 10:06:21;;;;;;;8.80;6.40;;;21.30;61.00;;;;;;5069161;28;20498;-72
2021/03/04 10:08:53;;;;;;;7.73;5.80;;;22.60;60.60;;;;;;5068897;28;20559;-72
2021/03/04 10:11:24;;;;;;;12.33;7.40;;;23.90;60.10;;;;;;5080198;28;20488;-72
2021/03/04 10:13:50;;;;;;;10.17;6.83;;;24.00;57.80;;;;;;5089556;28;20465;-72
2021/03/04 10:16:17;;;;;;;8.83;6.70;;;23.60;58.30;;;;;;5089547;28;20466;-72
2021/03/04 10:18:45;;;;;;;8.13;6.17;;;24.00;58.40;;;;;;5088880;28;20461;-72
2021/03/04 10:21:12;;;;;;;13.13;6.90;;;24.60;57.70;;;;;;5089324;28;20482;-72
2021/03/04 10:23:39;;;;;;;10.13;7.23;;;24.40;57.20;;;;;;5089173;28;20458;-72
2021/03/04 10:26:05;;;;;;;11.53;7.23;;;25.10;57.00;;;;;;5088931;28;20958;-72
2021/03/04 10:28:31;;;;;;;12.60;7.33;;;25.00;56.30;;;;;;5088505;28;20960;-71
2021/03/04 10:30:58;;;;;;;8.87;6.57;;;25.10;56.50;;;;;;5088064;28;20569;-72
2021/03/04 10:33:24;;;;;;;9.47;7.20;;;25.50;57.70;;;;;;5088704;28;20991;-72
2021/03/04 10:35:50;;;;;;;12.60;7.73;;;26.00;55.40;;;;;;5087964;28;20841;-72
2021/03/04 10:38:17;;;;;;;11.53;7.10;;;26.50;55.50;;;;;;5089146;28;20453;-73
2021/03/04 10:40:44;;;;;;;13.73;6.47;;;26.80;54.90;;;;;;5088019;28;20488;-73
2021/03/04 10:43:10;;;;;;;11.70;7.10;;;27.10;54.00;;;;;;5088550;28;20457;-73
2021/03/04 10:45:36;;;;;;;8.50;6.70;;;27.20;52.60;;;;;;5088489;28;20461;-73
2021/03/04 10:48:03;;;;;;;10.80;7.20;;;26.80;53.80;;;;;;5088228;28;20468;-72
2021/03/04 10:50:29;;;;;;;15.27;7.67;;;26.80;53.30;;;;;;5070070;28;20490;-72
2021/03/04 10:52:55;;;;;;;8.90;6.77;;;26.90;52.40;;;;;;5067877;28;20454;-73
2021/03/04 10:55:22;;;;;;;11.50;7.33;;;27.10;53.80;;;;;;5068749;28;20461;-72
2021/03/04 10:57:49;;;;;;;14.60;7.80;;;26.90;54.10;;;;;;5068173;28;20557;-72
2021/03/04 11:00:15;;;;;;;13.93;7.77;;;26.90;52.80;;;;;;5067427;28;21023;-72
2021/03/04 11:02:42;;;;;;;9.00;7.07;;;27.40;53.10;;;;;;5068367;28;20562;-72
2021/03/04 11:05:09;;;;;;;12.93;7.10;;;27.80;52.00;;;;;;5068154;28;20454;-72
2021/03/04 11:07:35;;;;;;;9.67;6.63;;;28.30;52.70;;;;;;5070930;28;20474;-72
2021/03/04 11:10:04;;;;;;;8.60;6.47;;;28.50;52.50;;;;;;5071387;28;20481;-72
2021/03/04 11:12:31;;;;;;;13.53;7.43;;;28.50;51.90;;;;;;5072125;28;20461;-72
2021/03/04 11:14:58;;;;;;;11.00;7.07;;;28.60;50.90;;;;;;5071494;28;20492;-72
2021/03/04 11:17:24;;;;;;;13.07;7.63;;;28.10;51.40;;;;;;5072970;28;20458;-72
2021/03/04 11:19:50;;;;;;;14.60;7.00;;;27.90;52.50;;;;;;5071345;28;21067;-73
2021/03/04 11:22:17;;;;;;;11.10;7.10;;;27.40;52.30;;;;;;5072098;28;20489;-73
2021/03/04 11:24:46;;;;;;;13.23;6.97;;;27.20;52.50;;;;;;5072031;28;20502;-73
2021/03/04 11:27:13;;;;;;;15.07;7.80;;;26.80;53.50;;;;;;5071919;28;20462;-72
2021/03/04 11:29:39;;;;;;;9.43;7.73;;;26.30;53.30;;;;;;5071390;28;20489;-73
2021/03/04 11:32:07;;;;;;;10.37;7.60;;;26.00;53.70;;;;;;5071872;28;20819;-71
2021/03/04 11:34:33;;;;;;;9.10;7.03;;;25.40;53.50;;;;;;5071524;28;20867;-71
2021/03/04 11:36:59;;;;;;;12.17;6.93;;;24.30;55.30;;;;;;5071369;28;20454;-72
2021/03/04 11:39:25;;;;;;;10.87;7.07;;;23.00;55.80;;;;;;5070899;28;20482;-71
2021/03/04 11:41:52;;;;;;;15.20;8.53;;;22.40;57.00;;;;;;5071035;28;20844;-71
2021/03/04 11:44:18;;;;;;;15.93;8.03;;;21.80;57.60;;;;;;5071531;28;20455;-71
2021/03/04 11:46:44;;;;;;;15.13;7.97;;;21.70;57.70;;;;;;5071336;28;20458;-70
2021/03/04 11:49:11;;;;;;;11.90;7.83;;;21.70;58.30;;;;;;5071319;28;20791;-70
2021/03/04 11:51:37;;;;;;;10.63;7.20;;;22.20;58.30;;;;;;5070684;28;20482;-70
2021/03/04 11:54:04;;;;;;;14.73;7.10;;;22.60;56.80;;;;;;5071420;28;20466;-70
2021/03/04 11:56:31;;;;;;;11.20;7.70;;;22.40;56.80;;;;;;5071623;28;20508;-72
2021/03/04 11:58:58;;;;;;;11.10;7.50;;;22.40;57.20;;;;;;5070991;28;20466;-72
2021/03/04 12:01:24;;;;;;;14.23;8.00;;;21.70;58.00;;;;;;5071741;28;20837;-72
2021/03/04 12:03:50;;;;;;;14.23;7.60;;;20.60;59.20;;;;;;5071338;28;20466;-72
2021/03/04 12:06:17;;;;;;;15.00;8.00;;;20.40;60.10;;;;;;5071658;28;20477;-72
2021/03/04 12:08:45;;;;;;;10.60;7.40;;;20.50;59.60;;;;;;5070812;28;20454;-72
2021/03/04 12:11:11;;;;;;;10.33;8.07;;;20.90;59.80;;;;;;5071130;28;20479;-70
2021/03/04 12:13:37;;;;;;;8.47;7.00;;;21.20;59.20;;;;;;5071445;28;20459;-71
2021/03/04 12:16:05;;;;;;;11.53;6.73;;;21.20;59.20;;;;;;5067236;28;20473;-71
2021/03/04 12:18:32;;;;;;;10.93;7.60;;;21.30;58.50;;;;;;5060413;28;20489;-71
2021/03/04 12:20:58;;;;;;;12.03;8.00;;;21.60;58.10;;;;;;5072275;28;20489;-71
2021/03/04 12:23:25;;;;;;;14.13;7.90;;;21.90;57.90;;;;;;5070695;28;20530;-72
2021/03/04 12:25:52;;;;;;;12.93;8.47;;;21.40;58.50;;;;;;5082861;28;20458;-71
2021/03/04 12:28:18;;;;;;;13.87;7.30;;;21.50;59.70;;;;;;5066177;28;20459;-72
2021/03/04 12:30:44;;;;;;;8.53;7.63;;;22.20;59.30;;;;;;5089762;28;20477;-71
2021/03/04 12:33:11;;;;;;;12.40;8.47;;;22.80;59.20;;;;;;5090280;28;20472;-72
2021/03/04 12:35:37;;;;;;;14.03;8.00;;;23.10;57.60;;;;;;5091131;28;20483;-71
2021/03/04 12:38:03;;;;;;;13.63;8.50;;;23.30;56.80;;;;;;5079215;28;20980;-71
2021/03/04 12:40:32;;;;;;;11.57;7.23;;;22.80;57.70;;;;;;5069462;28;21035;-71
2021/03/04 12:42:58;;;;;;;9.40;7.43;;;22.20;58.50;;;;;;5070324;28;20494;-71
2021/03/04 12:45:25;;;;;;;13.83;7.70;;;21.50;59.30;;;;;;5070128;28;20489;-71
2021/03/04 12:47:51;;;;;;;13.93;8.23;;;21.10;60.20;;;;;;5070170;28;20462;-71
2021/03/04 12:50:17;;;;;;;13.13;7.40;;;21.60;58.70;;;;;;5069911;28;20494;-71
2021/03/04 12:52:43;;;;;;;10.10;7.40;;;22.10;58.50;;;;;;5070149;28;20450;-71
2021/03/04 12:55:10;;;;;;;11.60;8.13;;;22.10;57.60;;;;;;5070155;28;20462;-71
2021/03/04 12:57:37;;;;;;;9.00;7.10;;;22.00;58.90;;;;;;5070281;28;20459;-71
2021/03/04 13:00:05;;;;;;;12.70;6.83;;;21.40;58.70;;;;;;5144167;22;20846;-69
2021/03/04 13:02:31;;;;;;;10.87;7.40;;;21.00;59.20;;;;;;5089444;28;21000;-69